createdAt,value
2018-06-02T19:26:57.622Z,19.85
2018-06-02T19:29:25.050Z,19.86
2018-06-02T19:31:52.295Z,19.86
2018-06-02T19:34:19.627Z,19.78
2018-06-02T19:36:46.931Z,19.76
2018-06-02T19:39:14.337Z,19.77
2018-06-02T19:41:41.641Z,19.73
2018-06-02T19:44:08.935Z,19.69
2018-06-02T19:46:36.261Z,19.68
2018-06-02T19:49:03.562Z,19.67
2018-06-02T19:51:30.820Z,19.60
2018-06-02T19:53:58.149Z,19.60
2018-06-02T19:56:25.446Z,19.62
2018-06-02T19:58:53.557Z,19.63
2018-06-02T20:01:20.938Z,19.62
2018-06-02T20:03:48.347Z,19.62
2018-06-02T20:06:15.641Z,19.59
2018-06-02T20:08:43.314Z,19.55
2018-06-02T20:11:11.204Z,19.54
2018-06-02T20:13:38.542Z,19.52
2018-06-02T20:16:05.861Z,19.54
2018-06-02T20:18:33.228Z,19.52
2018-06-02T20:21:00.644Z,19.52
2018-06-02T20:23:28.100Z,19.51
2018-06-02T20:25:55.566Z,19.52
2018-06-02T20:28:22.918Z,19.52
2018-06-02T20:30:50.720Z,19.51
2018-06-02T20:33:18.030Z,19.46
2018-06-02T20:35:45.274Z,19.47
2018-06-02T20:38:12.650Z,19.47
2018-06-02T20:40:39.913Z,19.52
2018-06-02T20:43:08.167Z,19.50
2018-06-02T20:45:35.495Z,19.40
2018-06-02T20:48:02.807Z,19.41
2018-06-02T20:50:30.137Z,19.34
2018-06-02T20:52:57.466Z,19.42
2018-06-02T20:55:24.775Z,19.41
2018-06-02T20:57:52.243Z,19.41
2018-06-02T21:00:19.551Z,19.40
2018-06-02T21:02:46.931Z,19.38
2018-06-02T21:05:14.824Z,19.38
2018-06-02T21:07:42.855Z,19.33
2018-06-02T21:10:10.193Z,19.28
2018-06-02T21:12:37.565Z,19.28
2018-06-02T21:15:04.928Z,19.25
2018-06-02T21:17:32.285Z,19.21
2018-06-02T21:20:00.144Z,19.16
2018-06-02T21:22:27.426Z,19.19
2018-06-02T21:24:54.765Z,19.18
2018-06-02T21:27:22.052Z,19.12
2018-06-02T21:29:49.395Z,19.07
2018-06-02T21:32:16.692Z,19.04
2018-06-02T21:34:43.986Z,19.04
2018-06-02T21:37:11.335Z,19.03
2018-06-02T21:39:38.738Z,19.06
2018-06-02T21:42:06.300Z,19.07
2018-06-02T21:44:34.520Z,19.07
2018-06-02T21:47:01.797Z,19.06
2018-06-02T21:49:29.089Z,19.07
2018-06-02T21:51:56.378Z,19.08
2018-06-02T21:54:23.693Z,19.11
2018-06-02T21:56:51.009Z,19.06
2018-06-02T21:59:18.339Z,19.00
2018-06-02T22:01:45.664Z,18.96
2018-06-02T22:04:12.919Z,18.92
2018-06-02T22:06:40.363Z,18.92
2018-06-02T22:09:07.658Z,18.89
2018-06-02T22:11:34.936Z,18.91
2018-06-02T22:14:02.339Z,18.89
2018-06-02T22:16:29.621Z,18.91
2018-06-02T22:18:56.894Z,18.90
2018-06-02T22:21:24.146Z,18.87
2018-06-02T22:23:51.443Z,18.88
2018-06-02T22:26:18.736Z,18.80
2018-06-02T22:28:45.997Z,18.73
2018-06-02T22:31:13.267Z,18.74
2018-06-02T22:33:40.554Z,18.74
2018-06-02T22:36:07.838Z,18.76
2018-06-02T22:38:35.084Z,18.77
2018-06-02T22:41:03.192Z,18.71
2018-06-02T22:43:30.425Z,18.65
2018-06-02T22:45:57.665Z,18.69
2018-06-02T22:48:24.953Z,18.74
2018-06-02T22:50:52.235Z,18.79
2018-06-02T22:53:19.520Z,18.76
2018-06-02T22:55:46.970Z,18.73
2018-06-02T22:58:14.442Z,18.68
2018-06-02T23:00:41.888Z,18.64
2018-06-02T23:03:09.149Z,18.67
2018-06-02T23:05:36.408Z,18.64
2018-06-02T23:08:03.654Z,18.62
2018-06-02T23:10:30.921Z,18.59
2018-06-02T23:12:58.176Z,18.58
2018-06-02T23:15:26.360Z,18.50
2018-06-02T23:17:53.617Z,18.51
2018-06-02T23:20:20.871Z,18.52
2018-06-02T23:22:48.125Z,18.47
2018-06-02T23:25:15.396Z,18.47
2018-06-02T23:27:42.668Z,18.41
2018-06-02T23:30:09.933Z,18.40
2018-06-02T23:32:37.202Z,18.40
2018-06-02T23:35:04.460Z,18.37
2018-06-02T23:37:31.714Z,18.37
2018-06-02T23:39:58.982Z,18.37
2018-06-02T23:42:26.277Z,18.37
2018-06-02T23:44:53.540Z,18.36
2018-06-02T23:47:20.820Z,18.32
2018-06-02T23:49:48.101Z,18.29
2018-06-02T23:52:15.350Z,18.27
2018-06-02T23:54:42.627Z,18.24
2018-06-02T23:57:09.857Z,18.22
2018-06-02T23:59:37.174Z,18.22
